Time;durP1;ratioP1;P1;durP2;ratioP2;P2;SDS_P1;SDS_P2;PMS_P1;PMS_P2;Temp;Humidity;BMP_temperature;BMP_pressure;BME280_temperature;BME280_humidity;BME280_pressure;Samples;Min_cycle;Max_cycle;Signal;HPM_P1;HPM_P2
2023/11/30 00:01:57;;;;;;;;;;;0.90;99.90;;;;;;8437576;28;20379;-72
2023/11/30 00:05:59;;;;;;;;;;;0.90;99.90;;;;;;8431662;28;19943;-71
2023/11/30 00:10:01;;;;;;;;;;;0.90;99.90;;;;;;8448775;28;20375;-71
2023/11/30 00:14:02;;;;;;;;;;;1.00;99.90;;;;;;8440153;28;20006;-72
2023/11/30 00:18:04;;;;;;;;;;;1.00;99.90;;;;;;8422987;28;19997;-72
2023/11/30 00:22:06;;;;;;;;;;;1.10;99.90;;;;;;8432669;28;20343;-72
2023/11/30 00:26:07;;;;;;;;;;;1.10;99.90;;;;;;8434037;28;20552;-71
2023/11/30 00:30:09;;;;;;;;;;;1.20;99.90;;;;;;8440138;28;19982;-71
2023/11/30 00:34:11;;;;;;;;;;;1.20;99.90;;;;;;8441229;28;19923;-72
2023/11/30 00:38:13;;;;;;;;;;;1.30;99.90;;;;;;8444816;28;19924;-72
2023/11/30 00:42:15;;;;;;;;;;;1.30;99.90;;;;;;8437702;28;20306;-72
2023/11/30 00:46:16;;;;;;;;;;;1.30;99.90;;;;;;8437701;28;20276;-72
2023/11/30 00:50:18;;;;;;;;;;;1.30;99.90;;;;;;8447621;28;19927;-71
2023/11/30 00:54:20;;;;;;;;;;;1.30;99.90;;;;;;8432017;28;20290;-71
2023/11/30 01:18:29;;;;;;;;;;;1.20;99.90;;;;;;8429584;28;20142;-72
2023/11/30 01:22:31;;;;;;;;;;;1.20;99.90;;;;;;8441822;28;20407;-72
2023/11/30 01:26:33;;;;;;;;;;;1.30;99.90;;;;;;8431859;28;20378;-71
2023/11/30 01:30:35;;;;;;;;;;;1.30;99.90;;;;;;8429407;28;19931;-72
2023/11/30 01:34:38;;;;;;;;;;;1.30;99.90;;;;;;8432932;28;19932;-72
2023/11/30 01:38:39;;;;;;;;;;;1.20;99.90;;;;;;8436930;28;20398;-72
2023/11/30 01:42:41;;;;;;;;;;;1.30;99.90;;;;;;8435644;28;19924;-71
2023/11/30 01:46:43;;;;;;;;;;;1.30;99.90;;;;;;8447722;28;19924;-71
2023/11/30 01:50:44;;;;;;;;;;;1.30;99.90;;;;;;8428888;28;20276;-72
2023/11/30 01:54:46;;;;;;;;;;;1.30;99.90;;;;;;8425014;28;19929;-71
2023/11/30 01:58:48;;;;;;;;;;;1.20;99.90;;;;;;8433380;28;19924;-72
2023/11/30 02:02:51;;;;;;;;;;;1.20;99.90;;;;;;8443417;28;19943;-71
2023/11/30 02:06:53;;;;;;;;;;;1.20;99.90;;;;;;8432179;28;19932;-72
2023/11/30 02:10:55;;;;;;;;;;;1.20;99.90;;;;;;8444379;28;20377;-71
2023/11/30 02:14:59;;;;;;;;;;;1.20;99.90;;;;;;8435477;28;19924;-72
2023/11/30 02:19:01;;;;;;;;;;;1.30;99.90;;;;;;8420860;28;20375;-73
2023/11/30 02:23:03;;;;;;;;;;;1.30;99.90;;;;;;8430839;28;19927;-71
2023/11/30 02:27:04;;;;;;;;;;;1.30;99.90;;;;;;8434986;28;19923;-72
2023/11/30 02:31:06;;;;;;;;;;;1.30;99.90;;;;;;8437746;28;19932;-72
2023/11/30 02:35:08;;;;;;;;;;;1.30;99.90;;;;;;8433454;28;19978;-72
2023/11/30 02:39:09;;;;;;;;;;;1.30;99.90;;;;;;8422269;28;19924;-71
2023/11/30 02:43:11;;;;;;;;;;;1.30;99.90;;;;;;8445806;28;19923;-73
2023/11/30 02:47:13;;;;;;;;;;;1.40;99.90;;;;;;8431704;28;19924;-72
2023/11/30 02:51:14;;;;;;;;;;;1.40;99.90;;;;;;8423797;28;19924;-72
2023/11/30 02:55:16;;;;;;;;;;;1.40;99.90;;;;;;8432769;28;20329;-72
2023/11/30 02:59:18;;;;;;;;;;;1.40;99.90;;;;;;8445317;28;19923;-72
2023/11/30 03:03:20;;;;;;;;;;;1.40;99.90;;;;;;8440214;28;19924;-72
2023/11/30 03:07:22;;;;;;;;;;;1.40;99.90;;;;;;8439582;28;19971;-72
2023/11/30 03:11:24;;;;;;;;;;;1.40;99.90;;;;;;8443823;28;19927;-71
2023/11/30 03:15:25;;;;;;;;;;;1.40;99.90;;;;;;8425514;28;20379;-71
2023/11/30 03:19:27;;;;;;;;;;;1.30;99.90;;;;;;8419478;28;19931;-72
2023/11/30 03:23:29;;;;;;;;;;;1.30;99.90;;;;;;8441219;28;20383;-72
2023/11/30 03:27:30;;;;;;;;;;;1.20;99.90;;;;;;8431034;28;20353;-72
2023/11/30 03:31:32;;;;;;;;;;;1.20;99.90;;;;;;8438382;28;19927;-72
2023/11/30 03:35:35;;;;;;;;;;;1.10;99.90;;;;;;8449588;28;19955;-72
2023/11/30 03:39:36;;;;;;;;;;;1.10;99.90;;;;;;8429397;28;19959;-72
2023/11/30 03:43:38;;;;;;;;;;;1.00;99.90;;;;;;8429488;28;19923;-72
2023/11/30 03:47:40;;;;;;;;;;;1.00;99.90;;;;;;8438606;28;20736;-71
2023/11/30 03:51:41;;;;;;;;;;;0.90;99.90;;;;;;8436024;28;19963;-72
2023/11/30 03:55:43;;;;;;;;;;;0.90;99.90;;;;;;8441585;28;19986;-72
2023/11/30 03:59:45;;;;;;;;;;;0.90;99.90;;;;;;8432143;28;20307;-71
2023/11/30 04:03:46;;;;;;;;;;;0.90;99.90;;;;;;8431905;28;19925;-72
2023/11/30 04:07:48;;;;;;;;;;;0.90;99.90;;;;;;8446899;28;20294;-71
2023/11/30 04:11:50;;;;;;;;;;;0.90;99.90;;;;;;8445577;28;20444;-71
2023/11/30 04:15:51;;;;;;;;;;;0.90;99.90;;;;;;8433856;28;19930;-71
2023/11/30 04:19:53;;;;;;;;;;;0.90;99.90;;;;;;8446047;28;20329;-71
2023/11/30 04:23:55;;;;;;;;;;;0.90;99.90;;;;;;8430064;28;19928;-71
2023/11/30 04:27:56;;;;;;;;;;;1.00;99.90;;;;;;8422416;28;19975;-72
2023/11/30 04:31:58;;;;;;;;;;;1.00;99.90;;;;;;8441524;28;19928;-73
2023/11/30 04:36:00;;;;;;;;;;;1.00;99.90;;;;;;8447564;28;19931;-71
2023/11/30 04:40:02;;;;;;;;;;;1.00;99.90;;;;;;8444034;28;20342;-72
2023/11/30 04:44:04;;;;;;;;;;;0.90;99.90;;;;;;8430746;28;19924;-71
2023/11/30 04:48:06;;;;;;;;;;;0.90;99.90;;;;;;8442862;28;19985;-71
2023/11/30 04:52:07;;;;;;;;;;;0.80;99.90;;;;;;8431884;28;20360;-72
2023/11/30 04:56:09;;;;;;;;;;;0.80;99.90;;;;;;8413716;28;20376;-72
2023/11/30 05:00:11;;;;;;;;;;;0.80;99.90;;;;;;8413196;28;19924;-71
2023/11/30 05:04:13;;;;;;;;;;;0.80;99.90;;;;;;8406017;28;19932;-72
2023/11/30 05:08:15;;;;;;;;;;;0.80;99.90;;;;;;8409633;28;19998;-72
2023/11/30 05:12:16;;;;;;;;;;;0.90;99.90;;;;;;8409478;28;19925;-72
2023/11/30 05:16:18;;;;;;;;;;;0.90;99.90;;;;;;8410266;28;19968;-72
2023/11/30 05:20:20;;;;;;;;;;;0.90;99.90;;;;;;8414015;28;19932;-73
2023/11/30 05:24:21;;;;;;;;;;;1.00;99.90;;;;;;8421549;28;19924;-71
2023/11/30 05:28:23;;;;;;;;;;;1.00;99.90;;;;;;8425158;28;19924;-71
2023/11/30 05:32:25;;;;;;;;;;;1.10;99.90;;;;;;8417835;28;20287;-73
2023/11/30 05:51:39;;;;;;;;;;;1.20;99.90;;;;;;8423012;28;20174;-72
2023/11/30 05:55:41;;;;;;;;;;;1.20;99.90;;;;;;8421822;28;19950;-72
2023/11/30 05:59:43;;;;;;;;;;;1.20;99.90;;;;;;8430316;28;19975;-72
2023/11/30 06:03:44;;;;;;;;;;;1.20;99.90;;;;;;8409783;28;19924;-72
2023/11/30 06:07:46;;;;;;;;;;;1.30;99.90;;;;;;8418718;28;19929;-72
2023/11/30 06:11:50;;;;;;;;;;;1.30;99.90;;;;;;8424265;28;19930;-71
2023/11/30 06:15:52;;;;;;;;;;;1.30;99.90;;;;;;8409827;28;19924;-71
2023/11/30 06:19:54;;;;;;;;;;;1.30;99.90;;;;;;8424342;28;19924;-72
2023/11/30 06:23:56;;;;;;;;;;;1.40;99.90;;;;;;8426342;28;20385;-72
2023/11/30 06:27:57;;;;;;;;;;;1.40;99.90;;;;;;8433959;28;19931;-72
2023/11/30 06:31:59;;;;;;;;;;;1.40;99.90;;;;;;8421463;28;19924;-72
2023/11/30 06:36:03;;;;;;;;;;;1.40;99.90;;;;;;8424047;28;19969;-72
2023/11/30 06:40:05;;;;;;;;;;;1.40;99.90;;;;;;8420079;28;19973;-72
2023/11/30 06:44:07;;;;;;;;;;;1.50;99.90;;;;;;8420845;28;20391;-72
2023/11/30 06:48:09;;;;;;;;;;;1.50;99.90;;;;;;8438134;28;19924;-72
2023/11/30 06:52:11;;;;;;;;;;;1.50;99.90;;;;;;8428352;28;19929;-72
2023/11/30 06:56:12;;;;;;;;;;;1.50;99.90;;;;;;8415535;28;19924;-72
2023/11/30 07:00:14;;;;;;;;;;;1.50;99.90;;;;;;8407153;28;19928;-72
2023/11/30 07:04:17;;;;;;;;;;;1.50;99.90;;;;;;8422488;28;19967;-71
2023/11/30 07:08:19;;;;;;;;;;;1.50;99.90;;;;;;8427585;28;20253;-71
2023/11/30 07:12:20;;;;;;;;;;;1.50;99.90;;;;;;8422068;28;19939;-71
2023/11/30 07:16:22;;;;;;;;;;;1.50;99.90;;;;;;8413109;28;19928;-72
2023/11/30 07:20:24;;;;;;;;;;;1.50;99.90;;;;;;8420786;28;19978;-71
2023/11/30 07:24:25;;;;;;;;;;;1.50;99.90;;;;;;8418806;28;20009;-72
2023/11/30 07:28:27;;;;;;;;;;;1.50;99.90;;;;;;8424546;28;19928;-72
2023/11/30 07:32:28;;;;;;;;;;;1.50;99.90;;;;;;8422260;28;19932;-71
2023/11/30 07:36:30;;;;;;;;;;;1.50;99.90;;;;;;8428845;28;19924;-72
2023/11/30 07:40:32;;;;;;;;;;;1.50;99.90;;;;;;8429474;28;20317;-72
2023/11/30 07:44:35;;;;;;;;;;;1.50;99.90;;;;;;8419985;28;19975;-71
2023/11/30 07:48:36;;;;;;;;;;;1.60;99.90;;;;;;8421446;28;19963;-71
2023/11/30 07:52:38;;;;;;;;;;;1.60;99.90;;;;;;8419436;28;19969;-73
2023/11/30 07:56:40;;;;;;;;;;;1.60;99.90;;;;;;8430955;28;20322;-71
2023/11/30 08:00:42;;;;;;;;;;;1.60;99.90;;;;;;8419410;28;20441;-71
2023/11/30 08:04:43;;;;;;;;;;;1.60;99.90;;;;;;8464620;27;19923;-71
2023/11/30 08:08:45;;;;;;;;;;;1.60;99.90;;;;;;8424516;28;19924;-72
2023/11/30 08:12:47;;;;;;;;;;;1.70;99.90;;;;;;8422921;28;20422;-71
2023/11/30 08:16:48;;;;;;;;;;;1.70;99.90;;;;;;8413827;28;19947;-72
2023/11/30 08:20:51;;;;;;;;;;;1.70;99.90;;;;;;8423634;28;19972;-72
2023/11/30 08:24:53;;;;;;;;;;;1.70;99.90;;;;;;8427604;28;19924;-73
2023/11/30 08:28:55;;;;;;;;;;;1.70;99.90;;;;;;8417253;28;19928;-72
2023/11/30 08:32:58;;;;;;;;;;;1.70;99.90;;;;;;8451649;27;19989;-72
2023/11/30 08:37:00;;;;;;;;;;;1.70;99.90;;;;;;8429132;28;20450;-72
2023/11/30 08:41:03;;;;;;;;;;;1.80;99.90;;;;;;8435185;28;19928;-72
2023/11/30 08:45:05;;;;;;;;;;;1.80;99.90;;;;;;8471444;27;19923;-72
2023/11/30 08:49:07;;;;;;;;;;;1.80;99.90;;;;;;8425817;28;19924;-72
2023/11/30 08:53:08;;;;;;;;;;;1.90;99.90;;;;;;8428220;28;19924;-71
2023/11/30 08:57:12;;;;;;;;;;;1.90;99.90;;;;;;8420571;28;20339;-72
2023/11/30 09:01:14;;;;;;;;;;;2.00;99.90;;;;;;8431090;28;19924;-72
2023/11/30 09:05:18;;;;;;;;;;;2.00;99.90;;;;;;8418770;28;19928;-71
2023/11/30 09:09:19;;;;;;;;;;;2.00;99.90;;;;;;8424496;28;19931;-73
2023/11/30 09:13:21;;;;;;;;;;;2.00;99.90;;;;;;8438337;28;19928;-72
2023/11/30 09:17:23;;;;;;;;;;;2.00;99.90;;;;;;8416772;28;19935;-72
2023/11/30 09:21:25;;;;;;;;;;;2.10;99.90;;;;;;8430594;28;19924;-71
2023/11/30 09:25:29;;;;;;;;;;;2.20;99.90;;;;;;8429641;28;19932;-71
2023/11/30 09:29:30;;;;;;;;;;;2.30;99.90;;;;;;8415970;28;20433;-72
2023/11/30 09:33:32;;;;;;;;;;;2.50;99.90;;;;;;8434187;28;19931;-71
2023/11/30 09:37:34;;;;;;;;;;;2.70;99.90;;;;;;8409376;28;19924;-71
2023/11/30 09:41:38;;;;;;;;;;;2.80;99.90;;;;;;8460536;27;19931;-72
2023/11/30 09:45:40;;;;;;;;;;;3.10;99.90;;;;;;8430684;28;19931;-72
2023/11/30 09:49:41;;;;;;;;;;;3.30;99.90;;;;;;8419203;28;19935;-71
2023/11/30 09:53:43;;;;;;;;;;;3.60;99.90;;;;;;8414405;28;19924;-72
2023/11/30 09:57:45;;;;;;;;;;;3.80;99.90;;;;;;8425375;28;19924;-72
2023/11/30 10:01:47;;;;;;;;;;;4.10;99.90;;;;;;8428142;28;19931;-72
2023/11/30 10:05:49;;;;;;;;;;;4.40;99.90;;;;;;8422972;28;19978;-72
2023/11/30 10:09:51;;;;;;;;;;;4.60;99.90;;;;;;8419868;28;19924;-72
2023/11/30 10:13:52;;;;;;;;;;;4.80;99.90;;;;;;8420301;28;19973;-72
2023/11/30 10:17:56;;;;;;;;;;;5.10;99.90;;;;;;8412426;28;19924;-73
2023/11/30 10:21:58;;;;;;;;;;;5.40;99.90;;;;;;8428451;28;20267;-72
2023/11/30 10:26:01;;;;;;;;;;;5.60;99.90;;;;;;8416631;28;19936;-72
2023/11/30 10:30:04;;;;;;;;;;;5.90;99.90;;;;;;8423537;28;19963;-71
2023/11/30 10:34:16;;;;;;;;;;;6.20;99.90;;;;;;8425214;28;19924;-73
2023/11/30 10:38:47;;;;;;;;;;;6.30;99.90;;;;;;8410356;28;20026;-72
2023/11/30 10:42:49;;;;;;;;;;;6.40;99.90;;;;;;8413046;28;19928;-71
2023/11/30 10:46:55;;;;;;;;;;;7.00;99.90;;;;;;8416530;28;19931;-72
2023/11/30 10:50:57;;;;;;;;;;;7.80;99.90;;;;;;8437996;28;19923;-71
2023/11/30 10:55:16;;;;;;;;;;;8.70;99.90;;;;;;8404529;28;19924;-72
2023/11/30 10:59:18;;;;;;;;;;;9.60;99.90;;;;;;8394370;28;20148;-72
2023/11/30 11:03:20;;;;;;;;;;;10.40;99.90;;;;;;8418024;28;19928;-72
2023/11/30 11:07:22;;;;;;;;;;;11.00;99.90;;;;;;8417227;28;19932;-72
2023/11/30 11:11:26;;;;;;;;;;;11.40;99.90;;;;;;8414364;28;19990;-72
2023/11/30 11:15:28;;;;;;;;;;;11.30;99.90;;;;;;8420133;28;19982;-72
2023/11/30 11:19:32;;;;;;;;;;;10.90;99.90;;;;;;8418678;28;19975;-72
2023/11/30 11:23:34;;;;;;;;;;;10.40;99.90;;;;;;8426959;28;19931;-72
2023/11/30 11:27:36;;;;;;;;;;;9.50;99.90;;;;;;8439805;28;19924;-72
2023/11/30 11:31:38;;;;;;;;;;;8.70;99.90;;;;;;8424605;28;19950;-72
2023/11/30 11:35:40;;;;;;;;;;;8.10;99.90;;;;;;8419051;28;19924;-72
2023/11/30 11:39:42;;;;;;;;;;;7.60;99.90;;;;;;8410334;28;19978;-71
2023/11/30 11:43:46;;;;;;;;;;;7.30;99.90;;;;;;8411935;28;20392;-72
2023/11/30 11:47:48;;;;;;;;;;;6.90;99.90;;;;;;8401459;28;20016;-72
2023/11/30 11:51:50;;;;;;;;;;;6.60;99.90;;;;;;8416530;28;19932;-71
2023/11/30 11:55:51;;;;;;;;;;;6.40;99.90;;;;;;8421605;28;19924;-71
2023/11/30 11:59:53;;;;;;;;;;;6.20;99.90;;;;;;8407404;28;19928;-72
2023/11/30 12:03:55;;;;;;;;;;;6.00;99.90;;;;;;8450632;27;20395;-71
2023/11/30 12:07:58;;;;;;;;;;;5.80;99.90;;;;;;8427642;28;19932;-71
2023/11/30 12:11:59;;;;;;;;;;;5.60;99.90;;;;;;8417828;28;19978;-72
2023/11/30 12:16:01;;;;;;;;;;;5.70;99.90;;;;;;8424104;28;19955;-71
2023/11/30 12:20:04;;;;;;;;;;;5.70;99.90;;;;;;8418739;28;19936;-72
2023/11/30 12:24:06;;;;;;;;;;;5.90;99.90;;;;;;8413171;28;19938;-72
2023/11/30 12:28:08;;;;;;;;;;;6.10;99.90;;;;;;8425263;28;19928;-71
2023/11/30 12:32:09;;;;;;;;;;;6.10;99.90;;;;;;8419185;28;19928;-71
2023/11/30 12:36:11;;;;;;;;;;;6.00;99.90;;;;;;8459055;27;20372;-72
2023/11/30 12:40:14;;;;;;;;;;;6.00;99.90;;;;;;8416680;28;19932;-72
2023/11/30 12:44:16;;;;;;;;;;;5.90;99.90;;;;;;8428223;28;19932;-71
2023/11/30 12:48:17;;;;;;;;;;;5.90;99.90;;;;;;8423140;28;19960;-72
2023/11/30 12:52:20;;;;;;;;;;;5.80;99.90;;;;;;8420942;28;19925;-72
2023/11/30 12:56:23;;;;;;;;;;;5.90;99.90;;;;;;8431900;28;19925;-72
2023/11/30 13:00:25;;;;;;;;;;;6.00;99.90;;;;;;8418257;28;19968;-72
2023/11/30 13:04:27;;;;;;;;;;;5.90;99.90;;;;;;8423779;28;19924;-73
2023/11/30 13:08:28;;;;;;;;;;;5.80;99.90;;;;;;8429975;28;19932;-72
2023/11/30 13:12:30;;;;;;;;;;;5.70;99.90;;;;;;8428247;28;19932;-72
2023/11/30 13:16:32;;;;;;;;;;;5.60;99.90;;;;;;8422105;28;19924;-72
2023/11/30 13:20:34;;;;;;;;;;;5.50;99.90;;;;;;8430134;28;19932;-71
2023/11/30 13:24:37;;;;;;;;;;;5.50;99.90;;;;;;8413977;28;19925;-72
2023/11/30 13:28:39;;;;;;;;;;;5.40;99.90;;;;;;8427966;28;19931;-72
2023/11/30 13:32:48;;;;;;;;;;;5.30;99.90;;;;;;8419062;28;19924;-71
2023/11/30 13:36:49;;;;;;;;;;;5.20;99.90;;;;;;8430541;28;19930;-72
2023/11/30 13:40:51;;;;;;;;;;;5.00;99.90;;;;;;8423007;28;20296;-72
2023/11/30 13:44:53;;;;;;;;;;;4.90;99.90;;;;;;8422868;28;19924;-72
2023/11/30 13:48:54;;;;;;;;;;;4.80;99.90;;;;;;8436666;28;19976;-72
2023/11/30 13:52:56;;;;;;;;;;;4.70;99.90;;;;;;8419049;28;19932;-71
2023/11/30 13:56:58;;;;;;;;;;;4.60;99.90;;;;;;8417139;28;19932;-71
2023/11/30 14:00:59;;;;;;;;;;;4.60;99.90;;;;;;8421953;28;19924;-72
2023/11/30 14:05:01;;;;;;;;;;;4.60;99.90;;;;;;8414969;28;20319;-71
2023/11/30 14:09:13;;;;;;;;;;;4.50;99.90;;;;;;8424260;28;19924;-71
2023/11/30 14:13:15;;;;;;;;;;;4.40;99.90;;;;;;8425544;28;19991;-71
2023/11/30 14:17:17;;;;;;;;;;;4.40;99.90;;;;;;8403099;28;19928;-71
2023/11/30 14:21:18;;;;;;;;;;;4.40;99.90;;;;;;8413047;28;19932;-72
2023/11/30 14:25:20;;;;;;;;;;;4.40;99.90;;;;;;8423405;28;19924;-72
2023/11/30 14:29:22;;;;;;;;;;;4.30;99.90;;;;;;8417469;28;20372;-71
2023/11/30 14:33:24;;;;;;;;;;;4.30;99.90;;;;;;8421168;28;19928;-71
2023/11/30 14:37:26;;;;;;;;;;;4.20;99.90;;;;;;8418484;28;20015;-71
2023/11/30 14:41:28;;;;;;;;;;;4.10;99.90;;;;;;8442833;27;19931;-72
2023/11/30 14:45:32;;;;;;;;;;;4.10;99.90;;;;;;8450844;28;20602;-71
2023/11/30 14:49:35;;;;;;;;;;;4.10;99.90;;;;;;8421861;28;19956;-71
2023/11/30 14:53:36;;;;;;;;;;;4.00;99.90;;;;;;8434856;28;20295;-71
2023/11/30 14:57:38;;;;;;;;;;;4.00;99.90;;;;;;8442095;28;19932;-71
2023/11/30 15:01:40;;;;;;;;;;;4.00;99.90;;;;;;8430636;28;19923;-71
2023/11/30 15:05:42;;;;;;;;;;;4.00;99.90;;;;;;8465780;27;19930;-71
2023/11/30 15:09:44;;;;;;;;;;;3.90;99.90;;;;;;8425723;28;19923;-71
2023/11/30 15:13:46;;;;;;;;;;;3.90;99.90;;;;;;8437226;28;20237;-71
2023/11/30 15:17:48;;;;;;;;;;;3.80;99.90;;;;;;8448365;27;19946;-71
2023/11/30 15:21:49;;;;;;;;;;;3.70;99.90;;;;;;8424535;28;20371;-71
2023/11/30 15:25:53;;;;;;;;;;;3.60;99.90;;;;;;8434101;28;19933;-71
2023/11/30 15:29:54;;;;;;;;;;;3.60;99.90;;;;;;8424425;28;19946;-71
2023/11/30 15:33:56;;;;;;;;;;;3.50;99.90;;;;;;8431102;28;19924;-71
2023/11/30 15:37:59;;;;;;;;;;;3.50;99.90;;;;;;8438678;28;19931;-71
2023/11/30 15:42:01;;;;;;;;;;;3.50;99.90;;;;;;8429052;28;20295;-72
2023/11/30 15:46:04;;;;;;;;;;;3.50;99.90;;;;;;8442100;28;19951;-72
2023/11/30 15:50:06;;;;;;;;;;;3.40;99.90;;;;;;8438735;28;19998;-71
2023/11/30 15:54:08;;;;;;;;;;;3.40;99.90;;;;;;8404323;28;20265;-72
2023/11/30 15:58:10;;;;;;;;;;;3.40;99.90;;;;;;8429707;28;19931;-72
2023/11/30 16:02:12;;;;;;;;;;;3.40;99.90;;;;;;8433639;28;20372;-72
2023/11/30 16:06:14;;;;;;;;;;;3.30;99.90;;;;;;8430674;28;19927;-71
2023/11/30 16:10:16;;;;;;;;;;;3.20;99.90;;;;;;8441275;28;19928;-72
2023/11/30 16:14:18;;;;;;;;;;;3.20;99.90;;;;;;8437991;28;19924;-72
2023/11/30 16:18:19;;;;;;;;;;;3.10;99.90;;;;;;8441542;28;19935;-71
2023/11/30 16:22:22;;;;;;;;;;;3.10;99.90;;;;;;8433136;28;20353;-72
2023/11/30 16:26:26;;;;;;;;;;;3.00;99.90;;;;;;8439841;28;19943;-72
2023/11/30 16:30:28;;;;;;;;;;;3.00;99.90;;;;;;8442936;28;19924;-71
2023/11/30 16:34:31;;;;;;;;;;;3.00;99.90;;;;;;8432903;28;20156;-72
2023/11/30 16:38:33;;;;;;;;;;;2.90;99.90;;;;;;8433247;28;19933;-71
2023/11/30 16:42:34;;;;;;;;;;;2.90;99.90;;;;;;8396822;28;20272;-71
2023/11/30 16:46:38;;;;;;;;;;;2.90;99.90;;;;;;8431483;27;20388;-72
2023/11/30 16:50:40;;;;;;;;;;;2.80;99.90;;;;;;8426467;27;19925;-72
2023/11/30 16:54:42;;;;;;;;;;;2.80;99.90;;;;;;8399550;28;20406;-72
2023/11/30 16:58:44;;;;;;;;;;;2.90;99.90;;;;;;8393660;28;19990;-72
2023/11/30 17:02:46;;;;;;;;;;;2.90;99.90;;;;;;8423914;27;19925;-72
2023/11/30 17:06:50;;;;;;;;;;;2.90;99.90;;;;;;8399766;28;20485;-71
2023/11/30 17:10:52;;;;;;;;;;;2.80;99.90;;;;;;8393889;28;19978;-72
2023/11/30 17:14:54;;;;;;;;;;;2.70;99.90;;;;;;8397567;28;19931;-72
2023/11/30 17:18:56;;;;;;;;;;;2.70;99.90;;;;;;8392887;28;20441;-72
2023/11/30 17:22:58;;;;;;;;;;;2.70;99.90;;;;;;8393953;28;19928;-72
2023/11/30 17:27:00;;;;;;;;;;;2.70;99.90;;;;;;8399628;28;19924;-73
2023/11/30 17:31:02;;;;;;;;;;;2.70;99.90;;;;;;8394168;28;20296;-73
2023/11/30 17:35:04;;;;;;;;;;;2.60;99.90;;;;;;8395984;28;19932;-72
2023/11/30 17:39:05;;;;;;;;;;;2.60;99.90;;;;;;8393197;28;19931;-71
2023/11/30 17:43:08;;;;;;;;;;;2.60;99.90;;;;;;8393893;28;19940;-73
2023/11/30 17:47:09;;;;;;;;;;;2.50;99.90;;;;;;8400288;28;19936;-72
2023/11/30 17:51:17;;;;;;;;;;;2.50;99.90;;;;;;8394159;28;19924;-71
2023/11/30 17:55:19;;;;;;;;;;;2.40;99.90;;;;;;8428367;27;19955;-71
2023/11/30 17:59:21;;;;;;;;;;;2.40;99.90;;;;;;8394071;28;20355;-71
2023/11/30 18:03:24;;;;;;;;;;;2.40;99.90;;;;;;8392821;28;20283;-72
2023/11/30 18:07:26;;;;;;;;;;;2.30;99.90;;;;;;8395936;28;19925;-72
2023/11/30 18:11:27;;;;;;;;;;;2.30;99.90;;;;;;8395878;28;19924;-71
2023/11/30 18:15:29;;;;;;;;;;;2.30;99.90;;;;;;8398201;28;19929;-71
2023/11/30 18:19:30;;;;;;;;;;;2.20;99.90;;;;;;8395435;28;20392;-73
2023/11/30 18:23:32;;;;;;;;;;;2.20;99.90;;;;;;8397450;28;19947;-71
2023/11/30 18:27:34;;;;;;;;;;;2.20;99.90;;;;;;8389956;28;19933;-72
2023/11/30 18:31:36;;;;;;;;;;;2.10;99.90;;;;;;8401262;28;20256;-72
2023/11/30 18:35:39;;;;;;;;;;;2.10;99.90;;;;;;8428438;27;19924;-72
2023/11/30 18:39:41;;;;;;;;;;;2.10;99.90;;;;;;8407798;27;19935;-72
2023/11/30 18:43:43;;;;;;;;;;;2.00;99.90;;;;;;8394002;28;19925;-71
2023/11/30 18:57:59;;;;;;;;;;;2.00;99.90;;;;;;8349269;28;19965;-73
2023/11/30 19:02:01;;;;;;;;;;;2.00;99.90;;;;;;8393777;28;20013;-72
2023/11/30 19:06:03;;;;;;;;;;;1.90;99.90;;;;;;8393375;28;19982;-72
2023/11/30 19:10:07;;;;;;;;;;;1.90;99.90;;;;;;8387177;28;19940;-71
2023/11/30 19:14:09;;;;;;;;;;;1.90;99.90;;;;;;8395107;28;19929;-71
2023/11/30 19:18:11;;;;;;;;;;;1.90;99.90;;;;;;8402381;28;20287;-72
2023/11/30 19:22:12;;;;;;;;;;;1.90;99.90;;;;;;8393419;28;20048;-72
2023/11/30 19:26:14;;;;;;;;;;;1.90;99.90;;;;;;8397295;28;19949;-72
2023/11/30 19:30:16;;;;;;;;;;;1.80;99.90;;;;;;8395533;28;20369;-72
2023/11/30 19:34:18;;;;;;;;;;;1.80;99.90;;;;;;8405590;28;19928;-72
2023/11/30 19:38:22;;;;;;;;;;;1.80;99.90;;;;;;8408271;28;19933;-72
2023/11/30 19:42:24;;;;;;;;;;;1.80;99.90;;;;;;8399335;28;20376;-72
2023/11/30 19:46:26;;;;;;;;;;;1.70;99.90;;;;;;8396343;28;19932;-71
2023/11/30 19:50:29;;;;;;;;;;;1.70;99.90;;;;;;8406568;28;19924;-72
2023/11/30 19:54:30;;;;;;;;;;;1.70;99.90;;;;;;8398303;28;20288;-72
2023/11/30 19:58:32;;;;;;;;;;;1.70;99.90;;;;;;8396012;28;20027;-73
2023/11/30 20:02:34;;;;;;;;;;;1.60;99.90;;;;;;8393622;28;19986;-71
2023/11/30 20:06:36;;;;;;;;;;;1.60;99.90;;;;;;8396079;28;19935;-72
2023/11/30 20:10:37;;;;;;;;;;;1.60;99.90;;;;;;8401813;28;19924;-72
2023/11/30 20:19:42;;;;;;;;;;;1.50;99.90;;;;;;8399116;28;19939;-72
2023/11/30 20:23:44;;;;;;;;;;;1.50;99.90;;;;;;8396301;28;19925;-73
2023/11/30 20:27:46;;;;;;;;;;;1.50;99.90;;;;;;8394370;28;19928;-72
2023/11/30 20:31:48;;;;;;;;;;;1.50;99.90;;;;;;8398176;28;19971;-72
2023/11/30 20:35:49;;;;;;;;;;;1.50;99.90;;;;;;8398080;28;19932;-72
2023/11/30 20:39:51;;;;;;;;;;;1.50;99.90;;;;;;8393379;28;19928;-72
2023/11/30 20:43:53;;;;;;;;;;;1.50;99.90;;;;;;8394439;28;19924;-72
2023/11/30 20:47:55;;;;;;;;;;;1.50;99.90;;;;;;8397170;28;19932;-72
2023/11/30 20:51:56;;;;;;;;;;;1.50;99.90;;;;;;8407165;28;19936;-72
2023/11/30 20:55:58;;;;;;;;;;;1.50;99.90;;;;;;8428619;27;20466;-72
2023/11/30 21:00:00;;;;;;;;;;;1.50;99.90;;;;;;8390541;28;19929;-72
2023/11/30 21:04:02;;;;;;;;;;;1.50;99.90;;;;;;8395199;28;19924;-72
2023/11/30 21:08:04;;;;;;;;;;;1.50;99.90;;;;;;8393229;28;19928;-71
2023/11/30 21:12:06;;;;;;;;;;;1.50;99.90;;;;;;8395833;28;19932;-71
2023/11/30 21:16:08;;;;;;;;;;;1.40;99.90;;;;;;8398998;28;19929;-72
2023/11/30 21:20:10;;;;;;;;;;;1.40;99.90;;;;;;8398413;28;19928;-72
2023/11/30 21:24:11;;;;;;;;;;;1.40;99.90;;;;;;8394231;28;20288;-72
2023/11/30 21:28:13;;;;;;;;;;;1.30;99.90;;;;;;8392849;28;19932;-72
2023/11/30 21:32:15;;;;;;;;;;;1.30;99.90;;;;;;8393627;28;20379;-72
2023/11/30 21:36:18;;;;;;;;;;;1.30;99.90;;;;;;8389369;28;19941;-72
2023/11/30 21:40:20;;;;;;;;;;;1.40;99.90;;;;;;8392094;28;20360;-72
2023/11/30 21:44:21;;;;;;;;;;;1.30;99.90;;;;;;8389041;28;19966;-72
2023/11/30 21:48:23;;;;;;;;;;;1.30;99.90;;;;;;8394539;28;19971;-72
2023/11/30 21:52:25;;;;;;;;;;;1.30;99.90;;;;;;8389513;28;19931;-72
2023/11/30 21:56:26;;;;;;;;;;;1.20;99.90;;;;;;8394752;28;20302;-71
2023/11/30 22:00:28;;;;;;;;;;;1.10;99.90;;;;;;8390091;28;19929;-72
2023/11/30 22:04:30;;;;;;;;;;;1.20;99.90;;;;;;8425970;28;19975;-71
2023/11/30 22:08:32;;;;;;;;;;;1.20;99.90;;;;;;8429609;28;19934;-72
2023/11/30 22:12:34;;;;;;;;;;;1.20;99.90;;;;;;8430599;28;19924;-72
2023/11/30 22:16:38;;;;;;;;;;;1.20;99.90;;;;;;8420828;28;19924;-72
2023/11/30 22:20:45;;;;;;;;;;;1.20;99.90;;;;;;8435180;28;19928;-72
2023/11/30 22:24:47;;;;;;;;;;;1.20;99.90;;;;;;8428297;28;19924;-71
2023/11/30 22:28:49;;;;;;;;;;;1.20;99.90;;;;;;8423778;28;20313;-71
2023/11/30 22:32:52;;;;;;;;;;;1.20;99.90;;;;;;8429824;28;19924;-71
2023/11/30 22:36:53;;;;;;;;;;;1.20;99.90;;;;;;8425550;28;19923;-72
2023/11/30 22:40:55;;;;;;;;;;;1.20;99.90;;;;;;8426206;28;19931;-72
2023/11/30 22:44:57;;;;;;;;;;;1.10;99.90;;;;;;8439837;28;19931;-72
2023/11/30 22:48:59;;;;;;;;;;;1.10;99.90;;;;;;8441792;28;19967;-72
2023/11/30 22:53:01;;;;;;;;;;;1.10;99.90;;;;;;8427873;28;20011;-72
2023/11/30 22:57:03;;;;;;;;;;;1.10;99.90;;;;;;8425399;28;20275;-72
2023/11/30 23:01:04;;;;;;;;;;;1.10;99.90;;;;;;8421997;28;19924;-71
2023/11/30 23:05:09;;;;;;;;;;;1.00;99.90;;;;;;8421330;28;19928;-72
2023/11/30 23:09:10;;;;;;;;;;;0.90;99.90;;;;;;8421466;28;20049;-72
2023/11/30 23:13:12;;;;;;;;;;;0.90;99.90;;;;;;8426864;28;19963;-72
2023/11/30 23:17:14;;;;;;;;;;;0.90;99.90;;;;;;8425745;28;19970;-72
2023/11/30 23:21:17;;;;;;;;;;;0.90;99.90;;;;;;8427490;28;19972;-72
2023/11/30 23:25:18;;;;;;;;;;;1.00;99.90;;;;;;8415611;28;20333;-71
2023/11/30 23:29:20;;;;;;;;;;;1.00;99.90;;;;;;8434346;28;19924;-72
2023/11/30 23:33:22;;;;;;;;;;;1.00;99.90;;;;;;8426335;28;19924;-72
2023/11/30 23:37:24;;;;;;;;;;;0.90;99.90;;;;;;8421259;28;20294;-72
2023/11/30 23:41:25;;;;;;;;;;;0.90;99.90;;;;;;8422603;28;19934;-72
2023/11/30 23:45:27;;;;;;;;;;;0.90;99.90;;;;;;8417750;28;19924;-73
2023/11/30 23:49:29;;;;;;;;;;;0.90;99.90;;;;;;8418894;28;20433;-72
